Terminal Aerodrome Forecast
Issued by NWS Shreveport, LA

Current Version | Previous Version | Text Only | Print | Product List | Glossary On
Versions: 1 2 3 4 5 6 7 8 9 10 11 12 13 14 15 16 17
000
FTUS44 KSHV 311054 AAA
TAFLFK
TAF AMD
KLFK 311054Z 3111/0106 11003KT 1/4SM FG VV002
      TEMPO 3111/3113 1SM BR BKN005
     FM311400 17005KT 4SM BR OVC007
      TEMPO 3114/3115 6SM BR BKN025 OVC060
     FM311500 18005KT P6SM BKN035 BKN060
     FM311800 17005KT P6SM BKN045 BKN250
     FM312100 19006KT P6SM SCT035 BKN250
     FM010100 15004KT P6SM VCSH BKN040 OVC150=

USA.gov is the U.S. government's official web portal to all federal, state and local government web resources and services.